createdAt,value
2023-03-22T00:00:19.794Z,0.77
2023-03-22T00:02:50.313Z,0.50
2023-03-22T00:05:19.382Z,0.57
2023-03-22T00:07:50.325Z,0.50
2023-03-22T00:10:19.890Z,0.88
2023-03-22T00:12:48.893Z,0.60
2023-03-22T00:15:18.210Z,0.90
2023-03-22T00:17:47.839Z,0.90
2023-03-22T00:20:20.872Z,1.10
2023-03-22T00:22:49.943Z,1.17
2023-03-22T00:25:19.816Z,1.27
2023-03-22T00:27:48.969Z,1.10
2023-03-22T00:30:18.490Z,1.77
2023-03-22T00:32:47.657Z,1.20
2023-03-22T00:35:18.247Z,1.77
2023-03-22T00:37:51.613Z,1.40
2023-03-22T00:40:20.784Z,1.30
2023-03-22T00:42:49.850Z,1.13
2023-03-22T00:45:19.087Z,1.05
2023-03-22T00:47:48.510Z,1.20
2023-03-22T00:50:19.102Z,1.20
2023-03-22T00:52:48.442Z,1.08
2023-03-22T00:55:17.624Z,1.20
2023-03-22T00:57:47.800Z,1.10
2023-03-22T01:00:17.621Z,1.00
2023-03-22T01:02:47.560Z,1.38
2023-03-22T01:05:22.612Z,1.27
2023-03-22T01:07:51.870Z,0.97
2023-03-22T01:10:21.085Z,1.02
2023-03-22T01:12:50.111Z,1.00
2023-03-22T01:15:22.569Z,1.10
2023-03-22T01:17:53.530Z,1.10
2023-03-22T01:20:24.747Z,1.80
2023-03-22T01:22:53.844Z,2.08
2023-03-22T01:25:22.929Z,2.60
2023-03-22T01:27:52.012Z,2.33
2023-03-22T01:30:21.245Z,2.92
2023-03-22T01:32:50.489Z,2.90
2023-03-22T01:35:20.373Z,4.20
2023-03-22T01:37:50.987Z,2.83
2023-03-22T01:40:21.785Z,2.90
2023-03-22T01:42:50.850Z,3.10
2023-03-22T01:45:41.960Z,3.28
2023-03-22T01:48:19.939Z,2.97
2023-03-22T01:50:57.504Z,3.53
2023-03-22T01:53:34.276Z,4.00
2023-03-22T01:56:04.635Z,3.88
2023-03-22T01:58:37.386Z,3.22
2023-03-22T02:01:11.073Z,3.50
2023-03-22T02:03:56.606Z,3.10
2023-03-22T02:06:29.992Z,3.55
2023-03-22T02:09:22.281Z,3.22
2023-03-22T02:12:07.697Z,4.07
2023-03-22T02:14:57.873Z,3.17
2023-03-22T02:18:06.521Z,3.55
2023-03-22T02:21:18.367Z,3.13
2023-03-22T02:24:14.863Z,2.83
2023-03-22T02:27:16.042Z,3.38
2023-03-22T02:29:48.344Z,3.47
2023-03-22T02:32:39.062Z,4.00
2023-03-22T02:35:38.481Z,3.90
2023-03-22T02:38:25.971Z,3.47
2023-03-22T02:41:06.349Z,3.65
2023-03-22T02:43:39.425Z,3.55
2023-03-22T02:46:12.428Z,3.25
2023-03-22T02:48:49.532Z,3.80
2023-03-22T02:51:23.092Z,4.00
2023-03-22T02:53:57.641Z,3.83
2023-03-22T02:56:32.833Z,3.13
2023-03-22T02:59:06.387Z,4.00
2023-03-22T03:01:40.544Z,3.70
2023-03-22T03:04:17.976Z,3.63
2023-03-22T03:06:50.524Z,5.00
2023-03-22T03:09:21.831Z,3.85
2023-03-22T03:14:26.068Z,4.32
2023-03-22T03:17:14.356Z,3.70
2023-03-22T03:19:53.542Z,2.97
2023-03-22T03:22:38.391Z,3.50
2023-03-22T03:25:15.320Z,3.45
2023-03-22T03:27:49.887Z,3.50
2023-03-22T03:30:27.247Z,3.40
2023-03-22T03:32:59.479Z,3.60
2023-03-22T03:35:37.706Z,3.90
2023-03-22T03:38:10.828Z,3.85
2023-03-22T03:40:42.862Z,3.45
2023-03-22T03:43:14.784Z,3.10
2023-03-22T03:45:44.064Z,2.92
2023-03-22T03:48:19.503Z,3.55
2023-03-22T03:50:51.050Z,2.85
2023-03-22T03:53:20.854Z,3.03
2023-03-22T03:55:50.122Z,3.22
2023-03-22T03:58:20.976Z,3.47
2023-03-22T04:00:51.094Z,3.25
2023-03-22T04:03:42.576Z,2.97
2023-03-22T04:06:14.437Z,3.88
2023-03-22T04:08:53.875Z,3.13
2023-03-22T04:11:27.117Z,3.17
2023-03-22T04:14:01.961Z,3.60
2023-03-22T04:16:31.618Z,3.40
2023-03-22T04:19:00.816Z,4.53
2023-03-22T04:21:29.994Z,3.53
2023-03-22T04:24:00.848Z,3.45
2023-03-22T04:26:33.897Z,3.97
2023-03-22T04:29:27.218Z,3.10
2023-03-22T04:32:01.508Z,3.45
2023-03-22T04:34:37.725Z,3.38
2023-03-22T04:37:12.242Z,3.08
2023-03-22T04:39:51.246Z,3.42
2023-03-22T04:42:39.365Z,3.35
2023-03-22T04:45:15.924Z,3.63
2023-03-22T04:47:49.106Z,3.40
2023-03-22T04:50:18.412Z,3.70
2023-03-22T04:52:55.033Z,3.70
2023-03-22T04:55:24.131Z,3.72
2023-03-22T04:57:55.445Z,3.20
2023-03-22T05:00:30.462Z,3.47
2023-03-22T05:03:02.000Z,3.97
2023-03-22T05:05:52.753Z,3.45
2023-03-22T05:08:24.961Z,3.17
2023-03-22T05:10:55.460Z,3.95
2023-03-22T05:13:27.314Z,3.05
2023-03-22T05:15:59.920Z,2.72
2023-03-22T05:18:42.553Z,3.17
2023-03-22T05:21:15.481Z,3.00
2023-03-22T05:23:46.261Z,4.55
2023-03-22T05:26:16.022Z,3.95
2023-03-22T05:28:46.072Z,3.63
2023-03-22T05:31:34.652Z,3.35
2023-03-22T05:34:05.373Z,3.78
2023-03-22T05:36:37.671Z,3.38
2023-03-22T05:39:22.971Z,3.65
2023-03-22T05:41:52.907Z,4.20
2023-03-22T05:44:22.070Z,4.18
2023-03-22T05:47:01.784Z,4.03
2023-03-22T05:49:47.024Z,4.10
2023-03-22T05:52:16.775Z,4.20
2023-03-22T05:54:53.189Z,4.72
2023-03-22T05:57:22.250Z,4.90
2023-03-22T05:59:53.939Z,5.10
2023-03-22T06:02:29.882Z,3.75
2023-03-22T06:05:00.091Z,4.60
2023-03-22T06:07:29.205Z,3.67
2023-03-22T06:10:04.126Z,4.05
2023-03-22T06:12:34.187Z,4.45
2023-03-22T06:15:13.464Z,4.15
2023-03-22T06:18:02.337Z,3.40
2023-03-22T06:20:35.545Z,4.22
2023-03-22T06:23:11.313Z,3.90
2023-03-22T06:25:41.969Z,4.60
2023-03-22T06:28:11.390Z,3.92
2023-03-22T06:30:43.473Z,4.22
2023-03-22T06:33:28.693Z,3.47
2023-03-22T06:36:03.216Z,4.00
2023-03-22T06:38:41.163Z,4.30
2023-03-22T06:41:10.424Z,3.92
2023-03-22T06:43:39.427Z,3.92
2023-03-22T06:46:21.939Z,3.92
2023-03-22T06:49:01.122Z,4.45
2023-03-22T06:51:30.319Z,3.80
2023-03-22T06:53:59.749Z,3.88
2023-03-22T06:56:29.099Z,3.95
2023-03-22T06:58:58.493Z,4.18
2023-03-22T07:01:27.633Z,3.65
2023-03-22T07:03:56.736Z,3.47
2023-03-22T07:06:27.386Z,3.33
2023-03-22T07:08:57.161Z,3.95
2023-03-22T07:11:30.804Z,3.83
2023-03-22T07:14:04.712Z,4.03
2023-03-22T07:17:14.177Z,3.58
2023-03-22T07:19:43.431Z,4.47
2023-03-22T07:22:15.640Z,4.00
2023-03-22T07:24:56.162Z,3.88
2023-03-22T07:27:30.933Z,4.15
2023-03-22T07:30:00.693Z,3.83
2023-03-22T07:32:30.704Z,3.95
2023-03-22T07:35:12.475Z,3.92
2023-03-22T07:37:44.242Z,4.78
2023-03-22T07:40:21.588Z,3.47
2023-03-22T07:42:51.456Z,4.03
2023-03-22T07:45:36.875Z,3.63
2023-03-22T07:48:34.892Z,3.95
2023-03-22T07:51:23.844Z,3.88
2023-03-22T07:53:54.356Z,4.03
2023-03-22T07:56:23.490Z,4.18
2023-03-22T07:58:52.584Z,3.70
2023-03-22T08:01:24.870Z,3.95
2023-03-22T08:04:21.052Z,4.03
2023-03-22T08:06:58.724Z,3.70
2023-03-22T08:09:30.602Z,3.63
2023-03-22T08:11:59.763Z,4.07
2023-03-22T08:14:36.177Z,3.70
2023-03-22T08:17:08.404Z,4.03
2023-03-22T08:19:37.550Z,3.40
2023-03-22T08:22:09.366Z,3.63
2023-03-22T08:24:59.741Z,4.40
2023-03-22T08:27:33.078Z,3.42
2023-03-22T08:30:05.853Z,3.50
2023-03-22T08:32:35.820Z,4.07
2023-03-22T08:35:06.458Z,4.53
2023-03-22T08:37:35.828Z,3.75
2023-03-22T08:40:10.588Z,4.50
2023-03-22T08:43:01.944Z,4.22
2023-03-22T08:45:32.247Z,4.65
2023-03-22T08:48:09.812Z,3.60
2023-03-22T08:51:01.137Z,4.03
2023-03-22T08:53:39.487Z,3.70
2023-03-22T08:56:38.279Z,3.58
2023-03-22T08:59:33.452Z,4.50
2023-03-22T09:02:26.172Z,3.80
2023-03-22T09:04:55.857Z,4.13
2023-03-22T09:07:25.452Z,4.07
2023-03-22T09:10:13.012Z,3.95
2023-03-22T09:12:48.095Z,4.15
2023-03-22T09:15:17.373Z,3.47
2023-03-22T09:17:51.238Z,3.65
2023-03-22T09:20:25.275Z,3.63
2023-03-22T09:22:54.702Z,3.65
2023-03-22T09:25:24.649Z,4.22
2023-03-22T09:27:55.687Z,3.45
2023-03-22T09:30:24.947Z,3.45
2023-03-22T09:32:53.922Z,3.97
2023-03-22T09:35:23.186Z,4.10
2023-03-22T09:37:59.001Z,4.13
2023-03-22T09:40:31.650Z,3.85
2023-03-22T09:43:05.806Z,4.80
2023-03-22T09:45:39.815Z,3.67
2023-03-22T09:48:15.847Z,3.92
2023-03-22T09:50:48.085Z,3.85
2023-03-22T09:53:18.411Z,3.78
2023-03-22T09:55:53.858Z,3.40
2023-03-22T09:58:29.364Z,3.60
2023-03-22T10:01:01.687Z,4.15
2023-03-22T10:03:59.338Z,3.47
2023-03-22T10:06:30.696Z,4.65
2023-03-22T10:11:45.816Z,4.00
2023-03-22T10:16:57.286Z,3.63
2023-03-22T10:19:32.458Z,3.22
2023-03-22T10:22:03.446Z,4.43
2023-03-22T10:24:36.905Z,4.00
2023-03-22T10:27:15.516Z,3.30
2023-03-22T10:29:49.673Z,3.53
2023-03-22T10:32:20.315Z,3.22
2023-03-22T10:34:49.500Z,4.40
2023-03-22T10:37:21.722Z,4.10
2023-03-22T10:39:54.233Z,4.32
2023-03-22T10:42:28.121Z,3.92
2023-03-22T10:45:02.485Z,4.43
2023-03-22T10:47:35.316Z,4.43
2023-03-22T10:50:07.486Z,3.90
2023-03-22T10:52:43.849Z,4.57
2023-03-22T10:55:15.894Z,4.22
2023-03-22T10:57:52.671Z,4.50
2023-03-22T11:00:24.494Z,3.85
2023-03-22T11:02:59.460Z,3.53
2023-03-22T11:05:30.906Z,3.92
2023-03-22T11:10:32.745Z,3.97
2023-03-22T11:13:21.651Z,4.20
2023-03-22T11:15:55.694Z,3.50
2023-03-22T11:18:26.253Z,3.20
2023-03-22T11:20:59.157Z,3.43
2023-03-22T11:23:29.953Z,3.10
2023-03-22T11:26:11.318Z,2.78
2023-03-22T11:28:47.517Z,3.13
2023-03-22T11:31:19.682Z,2.97
2023-03-22T11:33:57.280Z,3.13
2023-03-22T11:36:27.498Z,2.53
2023-03-22T11:39:01.786Z,2.08
2023-03-22T11:41:33.135Z,2.25
2023-03-22T11:46:34.593Z,1.65
2023-03-22T11:49:09.186Z,1.60
2023-03-22T11:51:40.980Z,1.58
2023-03-22T11:54:16.843Z,1.60
2023-03-22T11:56:49.306Z,1.30
2023-03-22T11:59:24.357Z,1.33
2023-03-22T12:02:04.318Z,2.33
2023-03-22T12:04:39.329Z,1.48
2023-03-22T12:07:15.604Z,1.75
2023-03-22T12:09:49.910Z,1.55
2023-03-22T12:12:23.152Z,1.58
2023-03-22T12:14:57.180Z,1.65
2023-03-22T12:17:33.549Z,1.60
2023-03-22T12:20:09.045Z,1.90
2023-03-22T12:22:43.345Z,2.17
2023-03-22T12:25:17.104Z,1.48
2023-03-22T12:27:49.525Z,1.63
2023-03-22T12:30:21.848Z,1.30
2023-03-22T12:32:54.996Z,1.60
2023-03-22T12:35:28.490Z,1.60
2023-03-22T12:38:00.617Z,1.30
2023-03-22T12:40:33.482Z,2.15
2023-03-22T12:43:10.548Z,1.85
2023-03-22T12:45:42.508Z,1.80
2023-03-22T12:48:19.078Z,1.30
2023-03-22T12:50:52.307Z,1.40
2023-03-22T12:53:23.534Z,1.33
2023-03-22T12:55:52.977Z,1.60
2023-03-22T12:58:24.540Z,1.27
2023-03-22T13:00:58.197Z,1.70
2023-03-22T13:03:40.343Z,1.42
2023-03-22T13:06:31.222Z,1.30
2023-03-22T13:09:15.912Z,1.30
2023-03-22T13:11:46.690Z,1.50
2023-03-22T13:14:53.235Z,1.73
2023-03-22T13:17:39.639Z,2.00
2023-03-22T13:20:29.225Z,1.70
2023-03-22T13:23:04.616Z,1.70
2023-03-22T13:25:36.724Z,1.65
2023-03-22T13:28:24.720Z,1.27
2023-03-22T13:30:56.234Z,1.85
2023-03-22T13:33:28.371Z,1.42
2023-03-22T13:36:01.402Z,1.20
2023-03-22T13:38:34.239Z,1.20
2023-03-22T13:41:05.898Z,1.40
2023-03-22T13:43:37.785Z,1.55
2023-03-22T13:46:28.081Z,2.00
2023-03-22T13:49:20.679Z,1.55
2023-03-22T13:51:52.117Z,1.63
2023-03-22T13:56:57.137Z,1.73
2023-03-22T13:59:31.348Z,1.13
2023-03-22T14:02:04.932Z,1.33
2023-03-22T14:04:40.843Z,1.30
2023-03-22T14:07:22.639Z,1.60
2023-03-22T14:09:53.911Z,1.92
2023-03-22T14:12:26.812Z,1.75
2023-03-22T14:14:59.289Z,1.75
2023-03-22T14:17:36.750Z,1.50
2023-03-22T14:20:10.501Z,2.38
